Huvudsida
METAR-TAF:

METAR-TAF

Flygplatser :

Port of Spain, Trinidad, Trinidad och Tobago

latitud: 10-37N, longitud: 061-21W, höjd: 12 m

Aktuellt väderrapport

Denna rapport gjordes för 52 minuter sedan, klockan 00:00 UTC
Vind 6 kt från ost
Temperatur 27°C
Fuktighet 84%
Tryck 1012 hPa
Sikt 10 km eller mer
Få moln på en höjd av 1600 ft

METAR: TTPP 220000Z 09006KT 9999 FEW016 27/24 Q1012 NOSIG

Tid: 20:52 (00:52 UTC)

Väderprognos

Denna rapport gjordes för 2 timmar och 52 minuter sedan, klockan 22:00 UTC
Prognos gäller från 22 kl. 00 UTC till 22 kl. 24 UTC
Vind 5 kt från ost/sydost
Sikt 10 km eller mer
Få moln på en höjd av 1800 ft
Sannolikhet 30% :
Temporärt
från 22 kl. 07 UTC till 22 kl. 11 UTC
Spridda moln på en höjd av 1500 ft
regnskurar
Blir
från 22 kl. 12 UTC till 22 kl. 14 UTC
Vind 15 kt från ost/sydost
Spridda moln på en höjd av 2000 ft

TAF: TTPP 212200Z 2200/2224 11005KT 9999 FEW018 PROB30 TEMPO 2207/2211 SHRA SCT015 BECMG 2212/2214 11015KT SCT020

Aktuella väderrapporter och prognoser från 4000 flygplatser (METAR- och TAF-rapporter).

De tillgängliga stationerna syns som gula och röda prickar på kartan.

För musen över prickarna för att se namnen på stationerna.

Klicka sedan för att få väderrapporter och prognoser.

För att ändra kartan: Klicka på de gröna knapparna med ett svart kors på för att zooma in; den gröna knappen med ett streck på för att zooma ut; eller på de gröna pilarna för angränsande kartor.


METAR-TAF: